Time;durP1;ratioP1;P1;durP2;ratioP2;P2;SDS_P1;SDS_P2;PMS_P1;PMS_P2;Temp;Humidity;BMP_temperature;BMP_pressure;BME280_temperature;BME280_humidity;BME280_pressure;Samples;Min_cycle;Max_cycle;Signal;HPM_P1;HPM_P2
2021/11/04 06:03:28;;;;;;;17.83;10.63;;;;;;;8.84;80.06;98433.84;5005256;28;106268;-71
2021/11/04 06:05:53;;;;;;;18.02;10.35;;;;;;;8.87;80.35;98417.53;5005488;28;105837;-71
2021/11/04 06:08:19;;;;;;;21.17;11.85;;;;;;;8.93;80.08;98415.91;5004494;28;106186;-68
2021/11/04 06:10:44;;;;;;;17.67;12.00;;;;;;;9.01;80.50;98413.03;5003889;28;106333;-67
2021/11/04 06:13:10;;;;;;;20.88;13.02;;;;;;;9.08;80.88;98413.06;5003668;28;105954;-71
2021/11/04 06:15:35;;;;;;;19.83;11.57;;;;;;;9.15;80.60;98397.91;5004534;28;106003;-70
2021/11/04 06:18:01;;;;;;;18.45;11.52;;;;;;;9.20;80.74;98391.97;5004655;28;106019;-68
2021/11/04 06:20:26;;;;;;;17.52;10.75;;;;;;;9.26;80.52;98394.63;5004386;28;107712;-70
2021/11/04 06:22:52;;;;;;;19.83;11.40;;;;;;;9.33;80.43;98413.22;5004375;28;106101;-71
2021/11/04 06:25:17;;;;;;;16.10;10.48;;;;;;;9.36;80.72;98410.16;5005086;28;106056;-68
2021/11/04 06:27:43;;;;;;;20.83;11.48;;;;;;;9.40;80.45;98419.34;5004192;28;106170;-70
2021/11/04 06:30:10;;;;;;;20.80;11.82;;;;;;;9.44;80.88;98425.88;5003929;28;106224;-63
2021/11/04 06:32:36;;;;;;;15.57;10.48;;;;;;;9.47;80.36;98422.84;5003774;28;105841;-65
2021/11/04 06:35:03;;;;;;;18.02;10.77;;;;;;;9.50;80.56;98416.28;5004699;28;105764;-71
2021/11/04 06:37:28;;;;;;;15.75;10.65;;;;;;;9.53;80.36;98402.59;5004421;28;106173;-67
2021/11/04 06:39:54;;;;;;;18.77;9.57;;;;;;;9.57;80.50;98400.34;5003982;28;106064;-64
2021/11/04 06:42:19;;;;;;;13.25;8.95;;;;;;;9.59;80.64;98407.06;5004404;28;105855;-63
2021/11/04 06:44:44;;;;;;;15.73;8.90;;;;;;;9.63;80.95;98407.47;5005425;28;105884;-69
2021/11/04 06:47:18;;;;;;;12.27;8.10;;;;;;;9.65;80.66;98406.25;5004874;28;106113;-61
2021/11/04 06:49:48;;;;;;;9.93;6.50;;;;;;;9.68;80.57;98407.66;5004103;28;106758;-63
2021/11/04 06:52:14;;;;;;;9.97;6.87;;;;;;;9.70;80.35;98418.09;5003629;28;105972;-66
2021/11/04 06:54:41;;;;;;;10.55;6.75;;;;;;;9.73;80.50;98415.00;5004094;28;105969;-62
2021/11/04 06:57:17;;;;;;;11.02;7.28;;;;;;;9.75;80.76;98402.34;5004404;28;105916;-61
2021/11/04 06:59:46;;;;;;;12.23;7.43;;;;;;;9.76;80.65;98393.31;5004214;28;105795;-62
2021/11/04 07:02:25;;;;;;;16.98;7.10;;;;;;;9.80;80.49;98391.88;5003508;28;105971;-60
2021/11/04 07:04:55;;;;;;;11.35;7.70;;;;;;;9.84;80.44;98382.44;5005085;28;106007;-62
2021/11/04 07:07:20;;;;;;;12.27;7.38;;;;;;;9.88;80.22;98369.56;5004328;28;106196;-61
2021/11/04 07:09:47;;;;;;;11.27;6.85;;;;;;;9.93;80.12;98361.75;5004290;28;106079;-71
2021/11/04 07:12:13;;;;;;;10.48;6.53;;;;;;;9.98;79.98;98359.28;5004308;28;106436;-61
2021/11/04 07:14:41;;;;;;;10.45;6.63;;;;;;;9.99;80.29;98352.94;4992367;28;106140;-61
2021/11/04 07:17:08;;;;;;;12.73;6.60;;;;;;;10.02;79.76;98359.66;4990915;28;106236;-62
2021/11/04 07:19:34;;;;;;;10.60;6.25;;;;;;;10.05;79.73;98352.09;4990755;28;106014;-62
2021/11/04 07:22:23;;;;;;;12.63;7.90;;;;;;;10.06;79.55;98359.06;4990437;28;106174;-61
2021/11/04 07:25:08;;;;;;;10.40;6.45;;;;;;;10.07;79.50;98347.38;4991278;28;106174;-61
2021/11/04 07:27:37;;;;;;;12.10;7.05;;;;;;;10.10;78.89;98336.31;4990799;28;106186;-61
2021/11/04 07:30:09;;;;;;;10.55;6.50;;;;;;;10.10;79.43;98340.81;4989877;28;106439;-61
2021/11/04 07:32:34;;;;;;;11.27;7.60;;;;;;;10.07;79.04;98333.25;4988622;28;106154;-61
2021/11/04 07:35:02;;;;;;;11.48;7.05;;;;;;;10.03;79.18;98348.00;4990951;28;106149;-62
2021/11/04 07:37:32;;;;;;;14.60;7.65;;;;;;;9.98;79.27;98344.13;4990659;28;105965;-62
2021/11/04 07:39:58;;;;;;;13.30;7.50;;;;;;;9.94;79.09;98334.16;4990255;28;106618;-62
2021/11/04 07:42:24;;;;;;;10.43;8.13;;;;;;;9.90;79.14;98316.97;4989822;28;105957;-63
2021/11/04 07:44:49;;;;;;;14.15;7.90;;;;;;;9.87;79.30;98323.53;4991478;28;105885;-63
2021/11/04 07:47:16;;;;;;;15.52;8.07;;;;;;;9.84;79.40;98305.31;4990503;28;106168;-63
2021/11/04 07:49:41;;;;;;;10.60;7.90;;;;;;;9.81;79.54;98301.25;4990068;28;105998;-61
2021/11/04 07:52:07;;;;;;;12.10;7.85;;;;;;;9.78;79.49;98293.69;4990271;28;106179;-63
2021/11/04 07:54:34;;;;;;;13.90;7.70;;;;;;;9.76;79.60;98298.41;4990386;28;106145;-62
2021/11/04 07:56:59;;;;;;;13.18;8.48;;;;;;;9.76;79.31;98308.22;4989880;28;106050;-63
2021/11/04 07:59:30;;;;;;;10.98;7.18;;;;;;;9.75;79.37;98280.03;4989752;28;106090;-62
2021/11/04 08:01:58;;;;;;;13.05;8.50;;;;;;;9.75;79.79;98280.03;4989251;28;106282;-62
2021/11/04 08:04:24;;;;;;;14.25;8.57;;;;;;;9.76;79.58;98271.81;4989809;28;105975;-61
2021/11/04 08:06:51;;;;;;;14.18;9.40;;;;;;;9.81;79.85;98258.72;4988982;28;106329;-63
2021/11/04 08:09:16;;;;;;;13.82;7.88;;;;;;;9.88;79.71;98263.16;4988419;28;107276;-62
2021/11/04 08:11:42;;;;;;;16.55;9.80;;;;;;;9.91;79.79;98268.06;4988860;28;106575;-68
2021/11/04 08:14:07;;;;;;;11.82;8.73;;;;;;;9.97;79.72;98256.56;4989387;28;106179;-62
2021/11/04 08:16:32;;;;;;;12.05;9.25;;;;;;;10.05;79.73;98269.63;4988899;28;106194;-62
2021/11/04 08:18:58;;;;;;;16.48;9.38;;;;;;;10.12;79.98;98265.06;4988424;28;111259;-67
2021/11/04 08:21:23;;;;;;;13.48;9.05;;;;;;;10.22;79.74;98256.59;4988682;28;107787;-62
2021/11/04 08:23:48;;;;;;;12.15;9.57;;;;;;;10.30;79.74;98255.53;4989585;28;105983;-63
2021/11/04 08:26:15;;;;;;;12.85;8.38;;;;;;;10.48;79.95;98255.66;4994103;28;106334;-62
2021/11/04 08:28:41;;;;;;;16.27;9.50;;;;;;;10.63;78.92;98243.84;4997163;28;108426;-61
2021/11/04 08:31:06;;;;;;;12.88;8.48;;;;;;;10.64;79.48;98256.13;4990849;28;106073;-62
2021/11/04 08:33:32;;;;;;;11.48;7.85;;;;;;;10.65;79.26;98247.13;4989855;28;105885;-62
2021/11/04 08:35:57;;;;;;;13.82;8.98;;;;;;;10.60;79.29;98238.97;4988550;28;106310;-62
2021/11/04 08:38:23;;;;;;;12.13;9.02;;;;;;;10.53;78.88;98238.22;4988766;28;105872;-62
2021/11/04 08:40:48;;;;;;;13.75;8.60;;;;;;;10.47;79.07;98235.38;4989301;28;105801;-62
2021/11/04 08:43:13;;;;;;;11.15;7.85;;;;;;;10.46;78.80;98211.63;4989981;28;106291;-69
2021/11/04 08:45:39;;;;;;;14.23;9.02;;;;;;;10.50;79.47;98208.31;4988847;28;106194;-60
2021/11/04 08:48:04;;;;;;;15.15;8.15;;;;;;;10.57;79.42;98202.94;4988720;28;106177;-61
2021/11/04 08:50:30;;;;;;;12.50;8.45;;;;;;;10.60;79.28;98207.81;4988264;28;106301;-62
2021/11/04 08:52:56;;;;;;;12.30;7.05;;;;;;;10.61;79.55;98203.31;4989455;28;106004;-61
2021/11/04 08:55:21;;;;;;;12.13;8.57;;;;;;;10.59;79.35;98205.38;4988954;28;106286;-62
2021/11/04 08:57:47;;;;;;;13.85;8.82;;;;;;;10.56;79.14;98198.63;4988756;28;105975;-69
2021/11/04 09:00:13;;;;;;;12.15;8.45;;;;;;;10.50;79.67;98192.34;4988907;28;105959;-62
2021/11/04 09:02:39;;;;;;;17.65;8.90;;;;;;;10.47;79.50;98192.78;4989253;28;106169;-61
2021/11/04 09:05:09;;;;;;;13.77;9.10;;;;;;;10.46;79.87;98185.03;4989257;28;106149;-65
2021/11/04 09:07:38;;;;;;;11.97;8.73;;;;;;;10.45;79.89;98188.72;4987769;28;106082;-61
2021/11/04 09:10:05;;;;;;;15.25;9.55;;;;;;;10.42;79.83;98189.97;4984738;28;106488;-61
2021/11/04 09:12:31;;;;;;;17.95;8.77;;;;;;;10.42;79.58;98192.63;4989420;28;105991;-60
2021/11/04 09:14:56;;;;;;;13.00;8.50;;;;;;;10.40;79.86;98200.03;4988761;28;106189;-62
2021/11/04 09:17:22;;;;;;;15.98;9.88;;;;;;;10.39;80.22;98193.06;4988582;28;111083;-67
2021/11/04 09:19:47;;;;;;;15.63;9.55;;;;;;;10.39;79.71;98189.56;4987832;28;106142;-71
2021/11/04 09:22:13;;;;;;;14.88;9.65;;;;;;;10.38;79.94;98186.09;4989667;28;106034;-61
2021/11/04 09:24:38;;;;;;;18.17;11.13;;;;;;;10.39;80.30;98179.75;4988777;28;106608;-70
2021/11/04 09:27:04;;;;;;;17.80;11.10;;;;;;;10.41;80.23;98182.19;4988137;28;105960;-61
2021/11/04 09:29:33;;;;;;;21.35;11.25;;;;;;;10.41;79.77;98183.00;4987099;28;106359;-60
2021/11/04 09:31:59;;;;;;;17.58;12.07;;;;;;;10.45;80.34;98191.38;4986736;28;106363;-62
2021/11/04 09:34:24;;;;;;;14.23;10.27;;;;;;;10.47;80.35;98191.94;4985284;28;106772;-64
2021/11/04 09:36:50;;;;;;;17.30;12.13;;;;;;;10.48;80.06;98199.75;4987322;28;105937;-63
2021/11/04 09:39:15;;;;;;;19.85;12.75;;;;;;;10.51;80.29;98187.81;4987965;28;105927;-66
2021/11/04 09:41:41;;;;;;;18.90;10.35;;;;;;;10.57;80.37;98183.50;4988563;28;106194;-61
2021/11/04 09:44:11;;;;;;;19.67;12.05;;;;;;;10.62;80.28;98180.97;4988199;28;106116;-60
2021/11/04 09:46:37;;;;;;;16.13;9.07;;;;;;;10.68;80.10;98182.75;4987297;28;106063;-60
2021/11/04 09:49:03;;;;;;;15.93;10.65;;;;;;;10.73;80.11;98179.44;4988499;28;105964;-62
2021/11/04 09:51:28;;;;;;;16.13;11.00;;;;;;;10.76;79.90;98185.13;4988488;28;105876;-62
2021/11/04 09:53:54;;;;;;;23.25;13.20;;;;;;;10.79;80.02;98182.03;4987658;28;106638;-61
2021/11/04 09:56:19;;;;;;;24.17;14.57;;;;;;;10.82;79.75;98170.13;4987621;28;106389;-60
2021/11/04 10:01:17;;;;;;;19.08;14.93;;;;;;;10.88;79.73;98168.41;4843107;28;106659;-64
2021/11/04 10:03:43;;;;;;;27.50;20.10;;;;;;;10.90;79.89;98163.69;4888999;28;106318;-71
2021/11/04 10:06:17;;;;;;;25.70;15.93;;;;;;;10.93;79.58;98169.38;4890323;28;106441;-67
2021/11/04 10:08:42;;;;;;;19.45;14.20;;;;;;;10.95;80.04;98161.97;4890425;28;106053;-61
2021/11/04 10:11:12;;;;;;;16.20;11.52;;;;;;;11.00;79.70;98154.16;4891067;28;105878;-66
2021/11/04 10:13:38;;;;;;;14.43;10.60;;;;;;;11.04;79.67;98164.34;4890477;28;106210;-62
2021/11/04 10:16:04;;;;;;;14.93;9.88;;;;;;;11.06;79.80;98165.75;4896887;28;105862;-67
2021/11/04 10:18:38;;;;;;;13.00;8.10;;;;;;;11.08;79.52;98169.00;4898280;28;105854;-66
2021/11/04 10:21:04;;;;;;;11.80;8.55;;;;;;;11.12;79.40;98169.38;4901118;28;106325;-70
2021/11/04 10:23:39;;;;;;;16.10;9.05;;;;;;;11.17;79.74;98154.34;4899055;28;106122;-65
2021/11/04 10:26:08;;;;;;;12.95;8.18;;;;;;;11.26;79.55;98156.69;4903313;28;105941;-68
2021/11/04 10:28:36;;;;;;;13.55;8.63;;;;;;;11.36;79.38;98138.31;4909396;28;106376;-68
2021/11/04 10:31:01;;;;;;;11.55;6.90;;;;;;;11.48;79.51;98151.69;4909931;28;105881;-66
2021/11/04 10:33:28;;;;;;;14.35;8.40;;;;;;;11.64;79.50;98142.25;4909698;28;106178;-68
2021/11/04 10:35:53;;;;;;;13.27;7.45;;;;;;;11.88;79.46;98148.47;4909622;28;105746;-68
2021/11/04 10:38:19;;;;;;;11.73;7.80;;;;;;;12.30;79.19;98160.94;4899121;28;106078;-66
2021/11/04 10:40:44;;;;;;;13.95;7.43;;;;;;;12.57;78.76;98157.84;4889982;28;105952;-67
2021/11/04 10:43:10;;;;;;;15.65;8.10;;;;;;;12.96;77.94;98161.63;4889034;28;106595;-70
2021/11/04 10:45:35;;;;;;;13.88;7.95;;;;;;;13.01;77.35;98151.03;4889007;28;105973;-68
2021/11/04 10:48:22;;;;;;;12.13;7.55;;;;;;;12.90;76.81;98140.38;4888900;28;106246;-69
2021/11/04 10:50:48;;;;;;;14.07;7.15;;;;;;;12.84;76.95;98144.78;4891966;28;106631;-69
2021/11/04 10:53:22;;;;;;;12.43;8.07;;;;;;;12.76;76.82;98148.63;4892020;28;106213;-67
2021/11/04 10:56:13;;;;;;;12.18;8.48;;;;;;;12.72;76.84;98158.16;4891756;28;106725;-68
2021/11/04 10:58:38;;;;;;;14.60;8.30;;;;;;;12.73;77.08;98151.78;4882027;28;106284;-69
2021/11/04 11:01:03;;;;;;;12.75;8.20;;;;;;;12.77;77.04;98152.94;4892640;28;106005;-69
2021/11/04 11:03:29;;;;;;;13.30;7.38;;;;;;;12.81;77.46;98147.94;4890809;28;106290;-70
2021/11/04 11:05:57;;;;;;;14.07;8.15;;;;;;;12.80;77.16;98159.69;4891579;28;105981;-66
2021/11/04 11:08:25;;;;;;;12.20;6.68;;;;;;;12.83;77.19;98149.31;4891236;28;106533;-69
2021/11/04 11:10:50;;;;;;;11.77;6.82;;;;;;;12.90;76.80;98137.69;4892387;28;106022;-63
2021/11/04 11:13:16;;;;;;;11.93;6.20;;;;;;;13.01;77.06;98134.19;4891232;28;106388;-69
2021/11/04 11:15:42;;;;;;;11.05;6.72;;;;;;;13.16;76.87;98115.78;4891647;28;106041;-66
2021/11/04 11:18:09;;;;;;;9.95;6.50;;;;;;;13.31;76.79;98136.66;4891718;28;106129;-68
2021/11/04 11:20:42;;;;;;;10.35;5.82;;;;;;;13.54;76.68;98124.25;4892103;28;106320;-66
2021/11/04 11:23:08;;;;;;;7.20;4.57;;;;;;;16.74;78.35;98120.72;4891946;28;106383;-69
2021/11/04 11:25:35;;;;;;;6.75;4.30;;;;;;;18.03;71.15;98111.13;4891242;28;106613;-69
2021/11/04 11:28:00;;;;;;;7.65;4.30;;;;;;;19.26;69.17;98123.50;4891253;28;106334;-66
2021/11/04 11:30:25;;;;;;;8.48;4.05;;;;;;;23.09;66.99;98107.56;4892152;28;106001;-70
2021/11/04 11:33:18;;;;;;;7.78;4.50;;;;;;;26.16;58.59;98122.59;4891382;28;105903;-71
2021/11/04 11:36:15;;;;;;;7.80;4.97;;;;;;;27.43;53.29;98134.75;4891167;28;106591;-65
2021/11/04 11:39:15;;;;;;;7.63;4.70;;;;;;;23.53;50.14;98146.03;4890588;28;105973;-66
2021/11/04 11:41:52;;;;;;;7.87;4.87;;;;;;;21.03;51.78;98146.13;4849491;28;106665;-68
2021/11/04 11:45:02;;;;;;;8.02;5.00;;;;;;;18.89;55.45;98145.50;4891427;28;105997;-68
2021/11/04 11:47:33;;;;;;;5.43;3.90;;;;;;;17.69;58.24;98148.53;4813517;29;106573;-68
2021/11/04 11:50:27;;;;;;;6.45;4.18;;;;;;;16.75;60.05;98159.97;4881532;28;106897;-68
2021/11/04 11:53:01;;;;;;;8.23;4.13;;;;;;;16.10;62.09;98168.13;4892157;28;106123;-69
2021/11/04 11:55:40;;;;;;;6.00;2.80;;;;;;;15.62;63.53;98261.03;4891635;28;106275;-68
2021/11/04 11:58:12;;;;;;;4.40;1.70;;;;;;;15.19;63.00;98218.66;4891219;28;105965;-67
2021/11/04 12:01:08;;;;;;;1.48;1.00;;;;;;;14.77;61.80;98278.13;4890671;28;106031;-65
2021/11/04 12:06:03;;;;;;;1.42;0.70;;;;;;;14.08;61.16;98236.28;4891098;28;106124;-73
2021/11/04 12:08:29;;;;;;;1.35;0.50;;;;;;;14.01;60.22;98251.66;4890465;28;106366;-65
2021/11/04 12:11:02;;;;;;;1.40;0.75;;;;;;;14.17;59.05;98245.50;4890521;28;106635;-66
2021/11/04 12:13:31;;;;;;;0.75;0.60;;;;;;;14.78;57.62;98285.13;4890699;28;106461;-66
2021/11/04 12:16:12;;;;;;;0.40;0.35;;;;;;;15.23;53.71;98318.25;4890633;28;106165;-64
2021/11/04 12:18:55;;;;;;;1.75;0.52;;;;;;;14.84;53.45;98277.97;4890333;28;106449;-66
2021/11/04 12:21:29;;;;;;;0.80;0.60;;;;;;;15.17;53.15;98285.19;4890538;28;106104;-67
2021/11/04 12:23:56;;;;;;;1.65;1.00;;;;;;;15.67;52.09;98287.94;4890704;28;106114;-65
2021/11/04 12:26:37;;;;;;;0.95;0.60;;;;;;;15.06;51.31;98296.78;4890542;28;106817;-66
2021/11/04 12:29:04;;;;;;;1.20;1.00;;;;;;;14.47;53.24;98303.34;4890489;28;106089;-65
2021/11/04 12:31:31;;;;;;;1.98;0.93;;;;;;;14.17;53.76;98306.31;4889297;28;106051;-66
2021/11/04 12:33:59;;;;;;;1.67;0.88;;;;;;;13.98;54.16;98321.75;4891162;28;106019;-66
2021/11/04 12:36:37;;;;;;;3.45;1.17;;;;;;;13.70;54.04;98328.69;4891042;28;106513;-66
2021/11/04 12:39:08;;;;;;;1.65;0.93;;;;;;;16.57;53.37;98376.25;4889998;28;106296;-65
2021/11/04 12:41:34;;;;;;;1.38;0.80;;;;;;;19.30;46.33;98336.19;4890929;28;106515;-66
2021/11/04 12:44:05;;;;;;;1.35;0.80;;;;;;;18.39;44.38;98366.38;4891585;28;105928;-66
2021/11/04 12:46:32;;;;;;;1.40;1.00;;;;;;;17.28;44.99;98385.19;4890979;28;106371;-66
2021/11/04 12:49:03;;;;;;;1.02;0.82;;;;;;;15.60;46.28;98400.06;4890467;28;107247;-66
2021/11/04 12:51:45;;;;;;;1.50;0.90;;;;;;;14.30;48.90;98390.91;4886862;28;106086;-64
2021/11/04 12:54:12;;;;;;;1.77;0.98;;;;;;;13.48;51.24;98406.88;4890832;28;106185;-66
2021/11/04 12:56:48;;;;;;;1.45;0.95;;;;;;;13.03;52.08;98413.56;4890377;28;106143;-66
2021/11/04 12:59:38;;;;;;;1.50;1.00;;;;;;;12.56;53.55;98426.78;4901485;28;106338;-66
2021/11/04 14:03:18;;;;;;;1.17;0.82;;;;;;;9.49;58.85;98463.31;5028547;27;105867;-67
2021/11/04 14:05:50;;;;;;;0.60;0.55;;;;;;;9.46;59.54;98465.56;5025983;27;105814;-65
2021/11/04 14:08:16;;;;;;;1.35;0.75;;;;;;;9.48;59.07;98472.28;5025518;27;105759;-67
2021/11/04 14:10:42;;;;;;;1.85;1.10;;;;;;;9.45;59.66;98504.59;5024929;27;105857;-68
2021/11/04 14:13:07;;;;;;;1.50;0.80;;;;;;;9.42;59.68;98482.97;5024780;27;105737;-66
2021/11/04 14:15:37;;;;;;;2.03;0.90;;;;;;;9.40;59.68;98501.75;5025827;27;105955;-65
2021/11/04 14:18:04;;;;;;;0.73;0.57;;;;;;;9.38;59.49;98503.78;5025167;27;106184;-67
2021/11/04 14:20:33;;;;;;;1.17;0.88;;;;;;;9.32;59.52;98509.91;5025015;27;106228;-68
2021/11/04 14:22:59;;;;;;;1.80;1.20;;;;;;;9.31;59.64;98514.41;5024528;27;105852;-68
2021/11/04 14:25:26;;;;;;;1.05;0.80;;;;;;;9.29;59.48;98547.53;5025515;28;105810;-68
2021/11/04 14:28:01;;;;;;;1.77;1.23;;;;;;;9.27;59.74;98539.75;5025285;28;105857;-69
2021/11/04 14:30:28;;;;;;;8.13;5.00;;;;;;;9.25;60.04;98527.69;5024907;27;106718;-67
2021/11/04 14:32:55;;;;;;;4.43;2.92;;;;;;;9.22;59.94;98530.75;5024609;28;106001;-70
2021/11/04 14:35:21;;;;;;;2.25;1.50;;;;;;;9.17;59.67;98527.88;5025714;27;106063;-64
2021/11/04 14:37:47;;;;;;;1.98;1.00;;;;;;;9.13;60.04;98520.34;5024901;27;106169;-65
2021/11/04 14:40:12;;;;;;;2.63;1.27;;;;;;;9.11;60.27;98540.94;5024103;28;105961;-62
2021/11/04 14:42:38;;;;;;;0.90;0.80;;;;;;;9.08;59.87;98561.81;5024381;27;106288;-62
2021/11/04 14:45:05;;;;;;;3.35;1.20;;;;;;;9.05;60.26;98568.34;5024620;28;106078;-63
2021/11/04 14:47:31;;;;;;;3.45;1.13;;;;;;;9.00;59.66;98564.63;5024482;27;106297;-66
2021/11/04 14:49:57;;;;;;;2.15;1.30;;;;;;;8.95;60.04;98584.66;5024096;27;107024;-62
2021/11/04 14:52:22;;;;;;;2.15;1.17;;;;;;;8.95;60.08;98584.66;5024520;28;105891;-65
2021/11/04 14:54:48;;;;;;;2.80;1.55;;;;;;;8.92;60.37;98586.88;5024997;27;106223;-64
2021/11/04 14:57:13;;;;;;;2.70;1.52;;;;;;;8.88;60.64;98604.22;5024906;27;105892;-63
2021/11/04 14:59:39;;;;;;;2.00;1.20;;;;;;;8.88;60.11;98593.59;5024011;27;105936;-62
2021/11/04 15:02:04;;;;;;;5.63;1.50;;;;;;;8.86;60.32;98616.88;5023893;27;106548;-66
2021/11/04 15:04:30;;;;;;;2.85;1.50;;;;;;;8.83;60.91;98606.66;5025351;28;105994;-66
2021/11/04 15:06:55;;;;;;;1.88;1.05;;;;;;;8.84;60.90;98613.59;5024771;27;106153;-65
2021/11/04 15:09:20;;;;;;;1.60;1.10;;;;;;;8.83;60.78;98614.63;5024349;27;107132;-67
2021/11/04 15:11:46;;;;;;;1.05;0.85;;;;;;;8.80;60.72;98635.25;5024187;27;105876;-65
2021/11/04 15:14:13;;;;;;;2.60;1.33;;;;;;;8.83;60.66;98627.88;5014254;28;105730;-64
2021/11/04 15:16:39;;;;;;;5.93;3.08;;;;;;;8.81;60.80;98647.50;5010254;28;105961;-67
2021/11/04 15:19:04;;;;;;;3.55;1.15;;;;;;;8.85;61.16;98641.81;5010549;28;105970;-68
2021/11/04 15:21:30;;;;;;;2.28;1.35;;;;;;;8.85;60.64;98636.50;5010463;28;105902;-67
2021/11/04 15:23:55;;;;;;;3.95;1.20;;;;;;;8.86;60.91;98648.72;5011391;28;105861;-62
2021/11/04 15:26:20;;;;;;;5.25;2.72;;;;;;;8.84;60.79;98661.41;5010751;28;105797;-68
2021/11/04 15:28:46;;;;;;;6.07;3.17;;;;;;;8.83;60.58;98670.38;5010581;28;106379;-69
2021/11/04 15:31:11;;;;;;;2.05;1.05;;;;;;;8.84;60.64;98680.78;5010772;28;106039;-62
2021/11/04 15:33:37;;;;;;;1.95;1.10;;;;;;;8.85;61.00;98684.28;5011812;28;106212;-63
2021/11/04 15:36:05;;;;;;;3.30;2.28;;;;;;;8.88;60.57;98691.84;5010942;28;106113;-67
2021/11/04 15:38:31;;;;;;;2.95;1.58;;;;;;;8.93;60.65;98684.13;5010091;28;106024;-67
2021/11/04 15:40:56;;;;;;;2.17;1.05;;;;;;;8.96;60.87;98697.00;5010476;28;106074;-67
2021/11/04 15:43:22;;;;;;;1.55;1.10;;;;;;;9.01;60.52;98704.38;5010620;28;106300;-67
2021/11/04 15:45:47;;;;;;;2.65;1.42;;;;;;;9.04;60.62;98704.81;5010350;28;105974;-66
2021/11/04 15:48:13;;;;;;;2.17;1.23;;;;;;;9.07;60.57;98709.72;5009792;28;106138;-68
2021/11/04 15:50:38;;;;;;;2.40;1.30;;;;;;;9.08;60.56;98714.03;5010384;28;105967;-64
2021/11/04 15:53:03;;;;;;;2.20;1.20;;;;;;;9.09;60.31;98709.53;5010759;28;106245;-66
2021/11/04 15:55:29;;;;;;;6.47;2.90;;;;;;;9.05;60.18;98710.94;5010538;28;106232;-68
2021/11/04 15:57:55;;;;;;;5.03;1.85;;;;;;;9.05;60.75;98705.63;5008977;28;107678;-61
2021/11/04 16:00:21;;;;;;;3.47;1.40;;;;;;;9.10;60.95;98727.94;4991762;28;107510;-62
2021/11/04 16:02:46;;;;;;;4.15;1.63;;;;;;;9.11;60.44;98732.22;5010261;28;106283;-67
2021/11/04 16:05:11;;;;;;;3.60;1.50;;;;;;;9.12;60.31;98727.75;5010428;28;106220;-66
2021/11/04 16:07:39;;;;;;;10.35;3.55;;;;;;;9.12;60.52;98731.22;5010156;28;105932;-65
2021/11/04 16:10:05;;;;;;;2.72;1.33;;;;;;;9.19;60.87;98747.19;5009933;28;106439;-61
2021/11/04 16:12:30;;;;;;;4.80;1.00;;;;;;;9.23;60.65;98750.28;5010808;28;106028;-63
2021/11/04 16:14:56;;;;;;;0.90;0.70;;;;;;;9.24;61.01;98771.34;5010218;28;106262;-65
2021/11/04 16:17:21;;;;;;;3.00;1.05;;;;;;;9.28;60.54;98754.00;5009738;28;105936;-63
2021/11/04 16:19:46;;;;;;;1.20;0.65;;;;;;;9.32;60.45;98754.41;5010003;28;106583;-62
2021/11/04 16:22:12;;;;;;;1.65;0.57;;;;;;;9.35;60.62;98775.28;5010812;28;105800;-66
2021/11/04 16:24:37;;;;;;;2.83;0.65;;;;;;;9.39;60.46;98767.72;5009261;28;106258;-66
2021/11/04 16:27:03;;;;;;;1.50;0.90;;;;;;;9.40;60.29;98770.19;5009557;28;107151;-67
2021/11/04 16:29:28;;;;;;;1.65;0.80;;;;;;;9.44;60.20;98775.94;5009720;28;106783;-66
2021/11/04 16:31:54;;;;;;;7.65;2.92;;;;;;;9.45;59.91;98782.88;5010399;28;106015;-66
2021/11/04 16:34:19;;;;;;;1.65;0.90;;;;;;;9.48;60.40;98793.13;5010086;28;106324;-65
2021/11/04 16:36:56;;;;;;;1.40;1.00;;;;;;;9.48;60.41;98791.28;5009539;28;105823;-66
2021/11/04 16:39:22;;;;;;;7.13;5.88;;;;;;;9.53;60.09;98792.53;5009840;28;106027;-66
2021/11/04 16:41:48;;;;;;;2.60;1.55;;;;;;;9.55;60.03;98830.38;5010464;28;106241;-67
2021/11/04 16:44:14;;;;;;;1.83;1.10;;;;;;;9.55;59.93;98798.47;5009740;28;106187;-68
2021/11/04 16:46:40;;;;;;;0.98;0.70;;;;;;;9.53;60.04;98825.25;5009331;28;106089;-66
2021/11/04 16:49:06;;;;;;;2.60;1.10;;;;;;;9.48;59.80;98804.56;5009003;28;105982;-66
2021/11/04 16:51:32;;;;;;;1.10;0.88;;;;;;;9.46;60.10;98819.09;5010072;28;106007;-66
2021/11/04 16:53:57;;;;;;;2.47;1.17;;;;;;;9.47;60.05;98848.13;5009517;28;106093;-66
2021/11/04 16:56:23;;;;;;;4.38;1.10;;;;;;;9.47;59.78;98808.25;5009481;28;105856;-66
2021/11/04 16:58:48;;;;;;;2.08;1.10;;;;;;;9.48;59.81;98827.69;5009270;28;105959;-64
2021/11/04 17:01:15;;;;;;;1.55;0.90;;;;;;;9.47;59.76;98828.69;5009744;28;105991;-66
2021/11/04 17:03:40;;;;;;;1.42;0.90;;;;;;;9.45;59.78;98831.56;5009028;28;106519;-63
2021/11/04 17:06:06;;;;;;;1.02;0.80;;;;;;;9.45;59.53;98828.88;5008868;28;106398;-65
2021/11/04 17:08:32;;;;;;;1.95;0.90;;;;;;;9.43;59.29;98841.56;5008447;28;105935;-65
2021/11/04 17:10:58;;;;;;;1.02;0.82;;;;;;;9.45;59.21;98842.19;5009945;28;106003;-63
2021/11/04 17:13:23;;;;;;;2.08;0.95;;;;;;;9.45;59.23;98834.22;5008930;28;106488;-63
2021/11/04 17:15:49;;;;;;;1.00;0.80;;;;;;;9.47;58.90;98834.84;5008125;28;106378;-63
2021/11/04 17:18:14;;;;;;;1.58;0.80;;;;;;;9.51;58.33;98855.72;5008704;28;106037;-63
2021/11/04 17:20:40;;;;;;;1.25;0.65;;;;;;;9.51;58.59;98850.41;5009324;28;106497;-63
2021/11/04 17:23:05;;;;;;;2.25;0.90;;;;;;;9.49;58.58;98871.84;5008956;28;105894;-66
2021/11/04 17:25:31;;;;;;;2.22;0.80;;;;;;;9.52;58.36;98860.03;5008809;28;105868;-65
2021/11/04 17:27:56;;;;;;;1.35;0.88;;;;;;;9.49;58.05;98870.00;5008734;28;106260;-64
2021/11/04 17:30:22;;;;;;;1.77;0.98;;;;;;;9.48;58.32;98856.91;5008001;28;106106;-66
2021/11/04 17:32:48;;;;;;;2.75;1.00;;;;;;;9.43;58.42;98857.53;5008703;28;106062;-63
2021/11/04 17:35:13;;;;;;;0.93;0.82;;;;;;;9.44;58.19;98869.78;5006434;28;106708;-66
2021/11/04 17:37:39;;;;;;;1.92;1.00;;;;;;;9.39;58.45;98850.94;5008424;28;105900;-66
2021/11/04 17:40:06;;;;;;;1.50;0.85;;;;;;;9.32;58.01;98871.31;5009251;28;105867;-66
2021/11/04 17:42:32;;;;;;;3.05;1.10;;;;;;;9.26;58.19;98864.16;5008037;28;106198;-66
2021/11/04 17:44:58;;;;;;;2.90;0.82;;;;;;;9.21;58.64;98885.16;5008513;28;106888;-67
2021/11/04 17:47:24;;;;;;;2.10;0.70;;;;;;;9.20;58.32;98872.88;5008395;28;105909;-66
2021/11/04 17:49:50;;;;;;;1.77;0.90;;;;;;;9.13;58.50;98872.84;5009125;28;106111;-63
2021/11/04 17:52:16;;;;;;;1.08;0.80;;;;;;;9.09;58.33;98898.16;5007323;28;106280;-67
2021/11/04 17:54:42;;;;;;;1.17;0.80;;;;;;;9.08;58.05;98876.06;5008547;28;106717;-65
2021/11/04 17:57:08;;;;;;;1.63;0.88;;;;;;;8.97;58.41;98884.59;5008670;28;105838;-64
2021/11/04 17:59:34;;;;;;;1.52;1.00;;;;;;;8.89;58.09;98898.00;5009355;28;105814;-64
2021/11/04 18:02:00;;;;;;;1.25;0.60;;;;;;;8.88;58.47;98897.16;5007829;28;106124;-67
2021/11/04 18:04:26;;;;;;;0.98;0.70;;;;;;;8.85;58.82;98910.00;5008335;28;105932;-64
2021/11/04 18:06:51;;;;;;;0.73;0.68;;;;;;;8.80;58.67;98897.28;5007923;28;106070;-64
2021/11/04 18:09:17;;;;;;;0.82;0.75;;;;;;;8.74;58.62;98912.16;5008943;28;106080;-64
2021/11/04 18:11:43;;;;;;;2.08;0.80;;;;;;;8.69;58.66;98924.34;5008351;28;106145;-66
2021/11/04 18:14:09;;;;;;;1.20;0.60;;;;;;;8.63;59.05;98915.31;5007843;28;106620;-63
2021/11/04 18:16:36;;;;;;;1.38;0.70;;;;;;;8.59;59.54;98909.56;5007035;28;106008;-65
2021/11/04 18:19:03;;;;;;;4.20;0.85;;;;;;;8.48;59.10;98922.53;5007767;28;105941;-66
2021/11/04 18:21:30;;;;;;;1.65;0.70;;;;;;;8.42;59.67;98929.34;5007703;28;106254;-68
2021/11/04 18:23:55;;;;;;;1.60;0.75;;;;;;;8.34;59.43;98925.00;5007610;28;106316;-67
2021/11/04 18:26:22;;;;;;;1.63;0.90;;;;;;;8.24;59.42;98929.75;5007683;28;106152;-67
2021/11/04 18:28:47;;;;;;;3.05;1.20;;;;;;;8.18;59.78;98933.16;5007984;28;106168;-67
2021/11/04 18:31:13;;;;;;;1.85;0.95;;;;;;;8.14;60.82;98936.16;5007485;28;106394;-68
2021/11/04 18:33:39;;;;;;;1.08;0.63;;;;;;;8.12;60.73;98943.50;5007618;28;106291;-65
2021/11/04 18:36:05;;;;;;;1.95;0.93;;;;;;;8.11;60.99;98944.50;5007391;28;105950;-67